Latest Weather Observations for Albany Airport

IDW60801

Issued at 12:32 pm WST Saturday 30 May 2015 (issued every 30 minutes, with the page automatically refreshed every 10 minutes)

About weather observations | Map of weather stations | Latest weather observations for WA | Other Formats
Station Details ID: 009999 Name: ALBANY AIRPORT Lat: -34.94 Lon: 117.82 Height: 68.4 m
Data from the previous 72 hours. | See also: Recent months at Albany Airport
Date/Time
WST
Temp
°C
App
Temp
°C
Dew
Point
Rel
Hum
%
Delta-T
°C
Wind Press
QNH
hPa
Press
MSL
hPa
Rain
since 9 am
mm
Dir
 
Spd
km/h
Gust
km/h
Spd
kts
Gust
kts
30/12:00pm 16.8 14.6 9.3 61 3.9 W 11 17 6 9 1026.3 1026.4 0.0
30/11:30am 15.9 14.0 10.4 70 2.9 WNW 11 17 6 9 1026.9 - 0.0
30/11:00am 15.3 12.9 10.1 71 2.7 WNW 13 17 7 9 1027.2 - 0.0
30/10:30am 15.0 12.4 10.6 75 2.3 WNW 15 17 8 9 1027.6 - 0.0
30/10:00am 14.1 11.5 10.7 80 1.8 WNW 15 17 8 9 1027.8 - 0.0
30/09:30am 12.8 10.5 10.5 86 1.2 WNW 13 15 7 8 1027.8 - 0.0
30/09:00am 11.3 8.7 9.5 89 0.9 WNW 13 15 7 8 1027.7 1027.8 1.6
30/08:30am 9.6 7.3 9.0 96 0.3 WNW 11 13 6 7 1027.6 - 1.6
30/08:00am 7.8 6.5 7.6 99 0.1 NW 4 9 2 5 1027.4 - 1.6
30/07:30am 6.3 4.1 6.3 100 0.0 NW 7 9 4 5 1027.6 - 1.6
30/07:00am 6.6 3.7 6.4 99 0.1 NW 11 13 6 7 1027.5 - 1.6
30/06:57am 6.5 3.6 6.3 99 0.1 NW 11 13 6 7 1027.5 - 1.6
30/06:30am 6.2 4.0 6.0 99 0.1 NW 7 7 4 4 1027.5 - 1.4
30/06:00am 6.4 3.8 6.0 97 0.2 NW 9 9 5 5 1027.3 1027.4 1.4
30/05:50am 5.5 2.8 5.5 100 0.0 NW 9 13 5 7 1027.3 - 1.4
30/05:30am 6.7 3.4 6.5 99 0.1 NW 13 13 7 7 1027.1 - 1.4
30/05:00am 6.8 3.6 6.8 100 0.0 NW 13 15 7 8 1027.1 - 1.4
30/04:30am 7.1 4.3 7.1 100 0.0 NW 11 13 6 7 1027.0 - 1.4
30/04:00am 7.3 4.2 7.1 99 0.1 NW 13 15 7 8 1027.0 - 1.4
30/03:52am 7.5 4.4 7.3 99 0.1 NW 13 13 7 7 1026.9 - 1.4
30/03:33am 7.0 4.6 7.0 100 0.0 NW 9 11 5 6 1027.0 - 1.4
30/03:30am 7.2 4.8 7.2 100 0.0 NW 9 11 5 6 1027.0 - 1.4
30/03:28am 7.3 5.0 7.3 100 0.0 NW 9 11 5 6 1027.0 - 1.4
30/03:16am 7.5 5.2 7.3 99 0.1 NW 9 11 5 6 1027.0 - 1.4
30/03:07am 7.2 4.8 7.2 100 0.0 NW 9 9 5 5 1027.1 - 1.4
30/03:00am 7.3 5.3 7.3 100 0.0 NNW 7 9 4 5 1027.2 1027.3 1.4
30/02:30am 6.7 4.6 6.7 100 0.0 NW 7 9 4 5 1027.3 - 1.4
30/02:13am 7.5 5.2 7.5 100 0.0 NW 9 11 5 6 1027.3 - 1.4
30/02:02am 7.0 5.0 7.0 100 0.0 NNW 7 9 4 5 1027.2 - 1.4
30/02:00am 7.0 5.0 7.0 100 0.0 NW 7 9 4 5 1027.2 - 1.4
30/01:30am 7.6 5.3 7.6 100 0.0 N 9 9 5 5 1027.1 - 1.4
30/01:25am 7.8 5.5 7.6 99 0.1 N 9 11 5 6 1027.1 - 1.4
30/01:24am 7.6 5.3 7.6 100 0.0 N 9 11 5 6 1027.1 - 1.4
30/01:00am 8.3 6.2 8.1 99 0.1 NW 9 11 5 6 1027.2 - 1.4
30/12:30am 9.2 7.7 9.2 100 0.0 N 7 9 4 5 1027.3 - 1.4
30/12:17am 8.9 7.3 8.9 100 0.0 N 7 9 4 5 1027.4 - 1.4
30/12:00am 10.1 8.8 10.1 100 0.0 NNW 7 9 4 5 1027.6 1027.7 1.4
 
Date/Time
WST
Temp
°C
App
Temp
°C
Dew
Point
Rel
Hum
%
Delta-T
°C
Wind Press
QNH
hPa
Press
MSL
hPa
Rain
since 9 am
mm
Dir
 
Spd
km/h
Gust
km/h
Spd
kts
Gust
kts
29/11:30pm 10.3 8.7 10.1 99 0.1 N 9 11 5 6 1027.6 - 1.4
29/11:00pm 10.8 9.3 10.6 99 0.1 N 9 11 5 6 1027.7 - 1.4
29/10:30pm 11.3 10.3 11.1 99 0.1 NNE 7 7 4 4 1027.8 - 1.4
29/10:00pm 11.5 10.6 11.3 99 0.1 NNE 7 9 4 5 1027.8 - 1.4
29/09:34pm 11.6 10.8 11.6 100 0.0 NE 7 9 4 5 1027.8 - 1.4
29/09:30pm 11.7 10.8 11.5 99 0.1 NE 7 9 4 5 1027.8 - 1.4
29/09:24pm 11.7 10.8 11.5 99 0.1 NE 7 7 4 4 1027.9 - 1.4
29/09:00pm 11.7 10.8 11.5 99 0.1 N 7 9 4 5 1027.9 1028.0 1.4
29/08:54pm 11.7 10.8 11.3 97 0.2 N 7 9 4 5 1027.9 - 1.4
29/08:44pm 11.7 10.8 11.5 99 0.1 N 7 9 4 5 1027.8 - 1.4
29/08:30pm 11.8 11.0 11.6 99 0.1 N 7 9 4 5 1027.8 - 1.2
29/08:26pm 11.8 10.6 11.6 99 0.1 NNW 9 9 5 5 1027.7 - 1.2
29/08:20pm 11.8 11.0 11.6 99 0.1 NNW 7 9 4 5 1027.7 - 1.2
29/08:00pm 11.9 11.0 11.5 97 0.2 NW 7 11 4 6 1027.8 - 1.0
29/07:30pm 11.8 10.5 11.4 97 0.2 NW 9 9 5 5 1027.6 - 0.6
29/07:00pm 11.9 11.2 11.5 97 0.2 NW 6 9 3 5 1027.3 - 0.6
29/06:30pm 12.3 11.0 11.3 94 0.5 W 9 13 5 7 1027.0 - 0.2
29/06:24pm 12.3 10.6 11.2 93 0.6 W 11 15 6 8 1027.0 - 0.2
29/06:20pm 12.4 10.7 11.1 92 0.7 W 11 15 6 8 1026.9 - 0.2
29/06:00pm 12.6 10.8 10.9 89 0.9 WSW 11 17 6 9 1026.7 1026.8 0.2
29/05:30pm 13.2 10.8 9.9 80 1.7 WSW 13 15 7 8 1026.3 - 0.2
29/05:00pm 14.1 12.4 8.5 69 2.8 WSW 7 13 4 7 1025.9 - 0.2
29/04:30pm 14.4 12.5 8.9 69 2.8 SW 9 13 5 7 1025.6 - 0.2
29/04:00pm 14.9 12.9 8.6 66 3.2 SW 9 11 5 6 1025.6 - 0.2
29/03:30pm 15.2 13.2 8.7 65 3.3 SW 9 13 5 7 1025.6 - 0.2
29/03:00pm 15.4 13.2 8.0 61 3.7 W 9 11 5 6 1025.5 1025.6 0.2
29/02:30pm 16.1 14.4 7.5 56 4.3 WNW 6 11 3 6 1025.5 - 0.2
29/02:00pm 16.0 13.5 6.6 53 4.6 WNW 9 15 5 8 1025.5 - 0.2
29/01:30pm 16.0 13.6 6.8 54 4.5 NNW 9 13 5 7 1025.6 - 0.2
29/01:00pm 15.5 13.1 6.9 56 4.2 WNW 9 15 5 8 1025.8 - 0.2
29/12:30pm 15.4 12.6 6.8 56 4.2 NW 11 17 6 9 1026.2 - 0.2
29/12:00pm 15.0 12.3 7.5 61 3.7 WNW 11 17 6 9 1026.7 1026.8 0.0
29/11:30am 14.2 11.1 7.2 63 3.4 NW 13 19 7 10 1027.0 - 0.0
29/11:00am 14.1 11.1 7.6 65 3.2 NW 13 17 7 9 1027.5 - 0.0
29/10:30am 13.1 10.1 7.8 70 2.6 NW 13 15 7 8 1027.9 - 0.0
29/10:00am 12.1 8.8 8.0 76 2.0 WNW 15 17 8 9 1028.0 - 0.0
29/09:30am 10.4 7.4 7.5 82 1.4 NW 13 15 7 8 1028.2 - 0.0
29/09:00am 9.5 6.9 7.6 88 0.9 WNW 11 15 6 8 1028.1 1028.2 0.6
29/08:30am 8.0 5.1 6.7 91 0.6 NW 11 13 6 7 1028.0 - 0.6
29/08:00am 5.9 2.8 5.7 99 0.1 WNW 11 13 6 7 1027.8 - 0.6
29/07:30am 4.5 1.2 4.5 100 0.0 WNW 11 15 6 8 1027.4 - 0.6
29/07:00am 4.8 1.4 4.1 95 0.3 W 11 13 6 7 1027.2 - 0.6
29/06:30am 3.5 0.6 2.7 94 0.3 NW 7 9 4 5 1027.0 - 0.6
29/06:00am 3.3 0.5 3.1 99 0.1 NNW 7 7 4 4 1026.8 1026.9 0.6
29/05:53am 2.9 0.1 2.9 100 0.0 N 7 11 4 6 1026.8 - 0.6
29/05:30am 4.4 1.1 4.4 100 0.0 NW 11 13 6 7 1026.8 - 0.6
29/05:00am 4.5 0.8 4.5 100 0.0 WNW 13 13 7 7 1026.8 - 0.6
29/04:52am 4.7 1.0 4.7 100 0.0 WNW 13 13 7 7 1026.8 - 0.6
29/04:30am 4.0 1.5 4.0 100 0.0 NNW 6 7 3 4 1026.7 - 0.6
29/04:00am 3.3 1.1 3.3 100 0.0 NNW 4 6 2 3 1026.7 - 0.6
29/03:30am 3.3 1.5 3.3 100 0.0 NNW 2 7 1 4 1026.7 - 0.6
29/03:00am 3.5 0.4 3.5 100 0.0 NW 9 11 5 6 1026.8 1026.9 0.6
29/02:30am 4.0 1.0 4.0 100 0.0 NW 9 11 5 6 1026.9 - 0.6
29/02:18am 4.9 3.0 4.9 100 0.0 W 4 9 2 5 1026.9 - 0.6
29/02:00am 5.5 2.7 5.3 99 0.1 W 9 9 5 5 1026.9 - 0.6
29/01:58am 5.4 3.0 5.4 100 0.0 W 7 9 4 5 1026.9 - 0.6
29/01:30am 4.3 1.7 4.3 100 0.0 N 7 7 4 4 1026.8 - 0.6
29/01:00am 5.0 2.7 5.0 100 0.0 NW 6 7 3 4 1027.0 - 0.6
29/12:30am 5.5 3.2 5.5 100 0.0 NNW 7 11 4 6 1027.1 - 0.6
29/12:23am 6.4 4.2 6.4 100 0.0 WNW 7 9 4 5 1027.1 - 0.6
29/12:00am 6.6 4.1 6.6 100 0.0 WNW 9 11 5 6 1027.1 1027.2 0.6
 
Date/Time
WST
Temp
°C
App
Temp
°C
Dew
Point
Rel
Hum
%
Delta-T
°C
Wind Press
QNH
hPa
Press
MSL
hPa
Rain
since 9 am
mm
Dir
 
Spd
km/h
Gust
km/h
Spd
kts
Gust
kts
28/11:35pm 6.8 4.3 6.6 99 0.1 W 9 11 5 6 1027.2 - 0.6
28/11:30pm 6.8 4.4 6.8 100 0.0 W 9 11 5 6 1027.1 - 0.6
28/11:00pm 7.1 5.2 6.9 99 0.1 NW 6 7 3 4 1027.0 - 0.6
28/10:33pm 6.6 4.5 6.6 100 0.0 N 7 9 4 5 1027.2 - 0.6
28/10:30pm 6.6 4.5 6.6 100 0.0 N 7 9 4 5 1027.2 - 0.6
28/10:00pm 8.8 6.8 8.6 99 0.1 SW 9 13 5 7 1027.3 - 0.6
28/09:30pm 8.6 6.5 8.2 97 0.2 NW 9 11 5 6 1027.2 - 0.6
28/09:00pm 9.0 7.3 8.4 96 0.3 NW 7 9 4 5 1027.3 1027.4 0.6
28/08:30pm 10.1 8.2 8.9 92 0.6 W 9 11 5 6 1027.1 - 0.6
28/08:00pm 10.3 8.4 9.1 92 0.6 WSW 9 9 5 5 1026.9 - 0.6
28/07:30pm 10.3 8.8 9.1 92 0.6 NNW 7 7 4 4 1026.5 - 0.6
28/07:00pm 9.9 8.5 8.9 93 0.5 N 6 7 3 4 1026.2 - 0.6
28/06:30pm 9.9 8.3 8.9 93 0.5 NNE 7 9 4 5 1025.9 - 0.6
28/06:00pm 10.4 8.9 8.6 89 0.9 NE 6 7 3 4 1025.7 1025.8 0.6
28/05:30pm 10.4 8.8 8.8 90 0.8 ENE 7 11 4 6 1025.6 - 0.6
28/05:00pm 10.7 9.2 9.1 90 0.8 S 7 9 4 5 1025.7 - 0.6
28/04:30pm 11.3 9.4 8.9 85 1.2 SSW 9 13 5 7 1025.5 - 0.6
28/04:00pm 12.4 11.3 8.3 76 2.0 SSE 4 7 2 4 1025.2 - 0.6
28/03:30pm 12.2 10.8 9.0 81 1.6 SW 6 9 3 5 1025.0 - 0.6
28/03:00pm 12.6 10.4 7.7 72 2.4 SE 9 13 5 7 1024.9 1025.0 0.4
28/02:30pm 12.8 10.4 7.0 68 2.8 SE 9 13 5 7 1024.7 - 0.4
28/02:00pm 12.7 10.2 8.0 73 2.3 S 11 17 6 9 1024.9 - 0.4
28/01:30pm 13.0 10.6 7.2 68 2.8 SE 9 15 5 8 1024.8 - 0.4
28/01:00pm 12.5 10.6 7.6 72 2.4 E 7 9 4 5 1024.8 - 0.4
28/12:43pm 12.2 9.7 8.3 77 1.9 S 11 17 6 9 1025.0 - 0.4
28/12:30pm 12.7 10.3 6.9 68 2.8 SSE 9 15 5 8 1025.0 - 0.4
28/12:00pm 13.3 10.5 7.1 66 3.0 SSE 11 15 6 8 1025.1 1025.2 0.4
28/11:30am 12.1 9.4 9.1 82 1.5 S 13 24 7 13 1025.4 - 0.4
28/11:00am 13.2 10.6 7.9 70 2.6 SSE 11 15 6 8 1025.5 - 0.4
28/10:30am 12.6 11.4 9.4 81 1.6 SE 6 9 3 5 1025.5 - 0.4
28/10:00am 11.4 11.3 9.6 89 0.9 CALM 0 6 0 3 1025.6 - 0.4
28/09:40am 11.1 11.2 10.3 95 0.4 CALM 0 4 0 2 1025.6 - 0.4
28/09:30am 10.9 11.0 10.3 96 0.3 CALM 0 4 0 2 1025.5 - 0.4
28/09:00am 10.8 9.3 10.6 99 0.1 W 9 13 5 7 1025.3 1025.4 11.4
28/08:30am 10.3 8.7 10.1 99 0.1 N 9 11 5 6 1024.8 - 11.0
28/08:07am 10.1 8.4 9.9 99 0.1 N 9 11 5 6 1024.7 - 11.0
28/08:00am 9.9 8.2 9.9 100 0.0 NNE 9 11 5 6 1024.6 - 11.0
28/07:30am 9.9 9.5 9.7 99 0.1 N 2 6 1 3 1024.5 - 10.4
28/07:20am 9.8 8.7 9.8 100 0.0 N 6 7 3 4 1024.3 - 9.6
28/07:00am 9.8 8.4 9.6 99 0.1 NW 7 9 4 5 1024.2 - 9.0
28/06:30am 9.7 9.2 9.5 99 0.1 NW 2 9 1 5 1023.8 - 8.8
28/06:00am 9.6 8.2 9.6 100 0.0 NW 7 9 4 5 1023.6 1023.7 8.4
28/05:30am 9.5 7.7 9.3 99 0.1 WNW 9 11 5 6 1023.5 - 7.6
28/05:24am 9.4 8.5 9.2 99 0.1 WNW 4 9 2 5 1023.4 - 7.4
28/05:00am 9.2 7.3 9.0 99 0.1 N 9 11 5 6 1023.1 - 7.4
28/04:30am 9.4 7.5 9.2 99 0.1 N 9 11 5 6 1022.9 - 7.4
28/04:00am 9.8 8.4 9.6 99 0.1 N 7 9 4 5 1022.9 - 7.4
28/03:57am 9.8 8.5 9.8 100 0.0 N 7 9 4 5 1022.9 - 7.4
28/03:45am 9.8 8.6 9.6 99 0.1 N 6 7 3 4 1022.8 - 7.4
28/03:41am 9.9 9.1 9.7 99 0.1 NNW 4 7 2 4 1022.8 - 7.4
28/03:38am 9.9 9.5 9.7 99 0.1 W 2 7 1 4 1022.8 - 7.4
28/03:30am 10.0 10.0 9.8 99 0.1 CALM 0 0 0 0 1022.8 - 7.4
28/03:01am 10.0 8.3 9.8 99 0.1 W 9 11 5 6 1022.9 - 6.4
28/03:00am 10.0 8.2 9.6 97 0.2 W 9 11 5 6 1022.9 1023.0 6.4
28/02:59am 10.0 8.2 9.6 97 0.2 WNW 9 11 5 6 1022.9 - 6.4
28/02:30am 10.2 10.3 10.0 99 0.1 CALM 0 4 0 2 1022.6 - 6.2
28/02:17am 10.3 8.7 10.1 99 0.1 SSW 9 11 5 6 1022.7 - 6.2
28/02:16am 10.3 8.7 10.1 99 0.1 SW 9 11 5 6 1022.7 - 6.2
28/02:00am 10.1 7.7 9.9 99 0.1 WSW 13 17 7 9 1022.7 - 5.6
28/01:52am 10.1 7.9 9.5 96 0.3 W 11 17 6 9 1022.6 - 4.2
28/01:30am 9.9 8.5 9.5 97 0.2 NW 7 9 4 5 1022.4 - 3.6
28/01:17am 10.5 8.8 9.7 95 0.4 WNW 9 13 5 7 1022.4 - 3.6
28/01:00am 10.8 8.8 10.0 95 0.4 W 11 17 6 9 1022.3 - 3.6
28/12:30am 10.5 8.0 9.7 95 0.4 W 13 20 7 11 1022.3 - 1.2
28/12:21am 9.3 7.4 8.9 97 0.2 W 9 13 5 7 1022.3 - 0.8
28/12:14am 9.1 7.1 8.7 97 0.2 WNW 9 11 5 6 1022.2 - 0.4
28/12:00am 8.7 7.0 8.3 97 0.2 NW 7 9 4 5 1022.1 1022.2 0.4
 
Date/Time
WST
Temp
°C
App
Temp
°C
Dew
Point
Rel
Hum
%
Delta-T
°C
Wind Press
QNH
hPa
Press
MSL
hPa
Rain
since 9 am
mm
Dir
 
Spd
km/h
Gust
km/h
Spd
kts
Gust
kts
27/11:42pm 8.9 7.5 8.7 99 0.1 NE 6 7 3 4 1021.9 - 0.4
27/11:30pm 9.4 8.1 9.2 99 0.1 NE 6 7 3 4 1021.9 - 0.4
27/11:00pm 10.6 9.3 10.0 96 0.3 NW 7 11 4 6 1021.9 - 0.4
27/10:30pm 9.9 8.5 9.5 97 0.2 NW 7 9 4 5 1021.8 - 0.4
27/10:00pm 10.2 9.4 9.6 96 0.3 NE 4 7 2 4 1021.7 - 0.4
27/09:34pm 11.4 10.2 10.4 94 0.5 WNW 7 7 4 4 1021.5 - 0.4
27/09:30pm 11.5 10.4 10.5 94 0.5 W 7 9 4 5 1021.6 - 0.4
27/09:15pm 11.2 10.0 10.2 94 0.5 WSW 7 11 4 6 1021.6 - 0.2
27/09:00pm 10.8 8.8 10.0 95 0.4 W 11 13 6 7 1021.4 1021.5 0.0
27/08:30pm 11.9 10.6 10.1 89 0.9 W 7 11 4 6 1021.3 - 0.0
27/08:00pm 12.4 9.9 9.6 83 1.4 WSW 13 19 7 10 1021.2 - 0.0
27/07:30pm 11.6 8.6 9.2 85 1.2 W 15 17 8 9 1020.8 - 0.0
27/07:00pm 12.2 8.9 8.1 76 2.0 W 15 20 8 11 1020.5 - 0.0
27/06:30pm 12.9 9.6 8.0 72 2.4 WSW 15 19 8 10 1020.3 - 0.0
27/06:00pm 13.5 9.9 8.5 72 2.5 SW 17 24 9 13 1020.1 1020.2 0.0
27/05:30pm 14.0 10.5 8.6 70 2.7 WSW 17 24 9 13 1019.9 - 0.0
27/05:00pm 14.2 11.5 8.9 70 2.7 WSW 13 19 7 10 1019.7 - 0.0
27/04:30pm 14.9 10.5 7.6 61 3.6 WSW 20 28 11 15 1019.7 - 0.0
27/04:00pm 15.3 11.4 7.2 58 4.0 WSW 17 24 9 13 1019.7 - 0.0
27/03:30pm 15.9 11.4 7.0 55 4.4 WSW 20 32 11 17 1019.7 - 0.0
27/03:00pm 15.5 11.7 7.7 59 3.9 W 17 20 9 11 1019.7 1019.8 0.0
27/02:30pm 15.7 11.5 7.5 58 4.1 W 19 28 10 15 1019.6 - 0.0
27/02:00pm 16.4 12.0 7.4 55 4.5 WNW 20 26 11 14 1019.6 - 0.0
27/01:30pm 15.5 11.2 7.0 57 4.2 W 19 24 10 13 1020.0 - 0.0
27/01:00pm 15.8 11.2 6.3 53 4.6 W 20 30 11 16 1020.1 - 0.0

Other Formats:

Comma delimited format used in spreadsheet applications
http://www.bom.gov.au/fwo/IDW60801/IDW60801.94802.axf

JavaScript Object Notation format (JSON) in row-major order
http://www.bom.gov.au/fwo/IDW60801/IDW60801.94802.json